McCarthy, Ontario

11:32 PM EDT on August 17, 2017 (GMT -0400)
North Bay | | Change Station

Elev 1217 ft 46.35 °N, 79.43 °W | Updated 29 minutes ago

Rain
Rain
59 °F
Feels Like 59 °F
N
18
Wind Variable Wind from SE

Today
High -- | Low -- °F
--% Chance of Precip.
Yesterday
High -- | Low -- °F
Precip. -- in
Pressure 29.81 in
Visibility 3.0 miles
Clouds Mostly Cloudy 400 ft
Mostly Cloudy 800 ft
Overcast 1500 ft
Dew Point 57 °F
Humidity 94%
Rainfall 0.00 in
Snow Depth Not available.
6:22 AM 8:28 PM
Waning Crescent, 17% visible
SPECI CYYB 180303Z AUTO 13016KT 3SM -RA BR BKN004 BKN008 OVC015 15/14 A2980 RMK SLP094 DENSITY ALT 1600FT
Pressure 29.81 in
Visibility 3.0 miles
Clouds Mostly Cloudy 400 ft
Mostly Cloudy 800 ft
Overcast 1500 ft
Dew Point 57 °F
Humidity 94%
Rainfall 0.00 in
Snow Depth Not available.
6:22 AM 8:28 PM
Waning Crescent, 17% visible
SPECI CYYB 180303Z AUTO 13016KT 3SM -RA BR BKN004 BKN008 OVC015 15/14 A2980 RMK SLP094 DENSITY ALT 1600FT

Get Severe Weather Alerts

Thanks for signing up!

Be on the lookout for a verification email in your inbox.

You'll start receiving the daily forecast at 6 AM.

×

10-Day Weather Forecast

Almanac

Astronomy

Aug. 17, 2017 Rise Set
Actual Time
Civil Twilight
Nautical Twilight
Astronomical Twilight
Moon
Length of Visible Light
Length of Day
Tomorrow will be .
, % of the Moon is Illuminated

Today's Extremes

Country Highs Country Lows

Community

WunderPhotos

Category 6

Welcome to Category 6. This is the collective home for Weather Underground's featured writeups by Dr. Jeff Masters (right), Bob Henson (left), Chris Burt, and other regular contributors.

Nearby

Air Quality

  Air Quality AQ Index Pollutant
Not available.

Snow Depth

Station Depth Elevation

Earthquake Activity

City Distance Mag. Time & Date
Minimum magnitude displayed is 2.5.

Coastal Water Temperatures

Place Temperature

Stations

Nearby Weather Stations

Station Location Temp. Windchill Dew Point Humidity Wind Precip. Elev Updated Type
                   

Watches & Warnings

There are currently no watches in effect.